AirNav   Pilot Hours Calculator
 
 1614 users online  

24CA Mesa Heliport
Pasadena, California, USA

GOING TO PASADENA?


FAA INFORMATION EFFECTIVE 08 OCTOBER 2020

Location

FAA Identifier: 24CA
Lat/Long: 34-12-20.4800N 118-10-25.3500W
34-12.341333N 118-10.422500W
34.2056889,-118.1737083
(estimated)
Elevation: 1520 ft. / 463 m (estimated)
Variation: 14E (1985)
From city: 4 miles N of PASADENA, CA
Time zone: UTC -7 (UTC -8 during Standard Time)
Zip code: 91011

Heliport Operations

Heliport use: Private use. Permission required prior to landing
Activation date: 03/1981
Control tower: no
ARTCC: LOS ANGELES CENTER
FSS: HAWTHORNE FLIGHT SERVICE STATION
Attendance: UNATNDD
Wind indicator: yes
Segmented circle: no

Heliport Communications

WX ASOS at BUR (9 nm W): PHONE 818-841-1384
WX AWOS-3PT at EMT (10 nm SE): 118.75 ((626) 444-1107)
WX AWOS-3PT at WHP (12 nm W): 132.1 (818-899-9820)
WX ASOS at VNY (16 nm W): PHONE 818-904-9213
WX ASOS at SMO (18 nm SW): PHONE 310-392-6453
WX ASOS at HHR (19 nm SW): PHONE 310-973-8930
WX AWOS-3PT at CPM (19 nm S): 127.150 (310-631-4958)
WX ASOS at LAX (20 nm SW): PHONE 310-568-1486

Nearby radio navigation aids

VOR radial/distance  VOR name  Freq  Var
VNYr079/15.8VAN NUYS VOR/DME113.1015E
SMOr035/18.3SANTA MONICA VOR/DME110.8015E
POMr277/20.7POMONA VORTAC110.4015E
LAXr023/20.8LOS ANGELES VORTAC113.6015E
SLIr332/26.0SEAL BEACH VORTAC115.7015E
PMDr177/26.1PALMDALE VORTAC114.5015E
LHSr130/34.9LAKE HUGHES VORTAC114.3515E
FIMr089/36.2FILLMORE VORTAC112.5015E
PDZr283/36.3PARADISE VORTAC112.2015E
ELBr311/38.7EL TORO VOR/DME117.2014E
RALr279/(39.0)RIVERSIDE VOR112.4014E

Heliport Services

Runway Information

Helipad H1

Dimensions: 50 x 50 ft. / 15 x 15 m
Surface: asphalt
Latitude: 34-12.341333N
Longitude: 118-10.422500W
Elevation: 1520.0 ft.
Traffic pattern: leftleft

Heliport Ownership and Management from official FAA records

Ownership: Publicly-owned
Owner: NASA/CA. INSTITUTE OF TECH
4800 OAK GROVE DRIVE
PASADENA, CA 91109
JET PROPULSION LABORATORY.
Manager: WILLIAM MICHAEL
4800 OAK GROVE DRIVE;180-300
PASADENA, CA 91109
Phone (818) 354-4091

Additional Remarks

A52-H1 STORAGE BLDG 35' SW OF PAD.
EMERG USE ONLY, PRIOR PERMISSION REQUIRED
FOR CD CTC LOS ANGELES ARTCC AT 661-575-2079.

Instrument Procedures

There are no published instrument procedures at 24CA.

Some nearby airports with instrument procedures:

KBUR - Bob Hope Airport (9 nm W)
KEMT - San Gabriel Valley Airport (10 nm SE)
KWHP - Whiteman Airport (12 nm W)
KVNY - Van Nuys Airport (16 nm W)
KSMO - Santa Monica Municipal Airport (18 nm SW)
KHHR - Jack Northrop Field/Hawthorne Municipal Airport (19 nm SW)
KLAX - Los Angeles International Airport (20 nm SW)
 
Loc | Ops | Rwys | IFR | FBO | Links
Com | Nav | Svcs | Stats | Notes

San Bernardino International Airport Authority
 
Area around 24CA (Mesa Heliport)
 
Road maps at: MapQuest Bing Google
 
Aerial photo
No photo
 
Sectional chart

 
Airport distance calculator
Flying to Mesa Heliport? Find the distance to fly.

From to 24CA

Sunrise and sunset
Times for 20-Oct-2020
 Local
(UTC-7)
 Zulu
(UTC)
Morning civil twilight06:3913:39
Sunrise07:0414:04
Sunset18:1101:11
Evening civil twilight18:3601:36

Current date and time
Zulu (UTC)  20-Oct-2020 18:32:18
Local (UTC-7)  20-Oct-2020 11:32:18
 
METAR
KBUR 
10nm W 
201753Z 00000KT 5SM HZ CLR 19/14 A2991 RMK AO2 SLP118 T01890139 10189 20156 58005
KCQT 
10nm S 
201752Z AUTO 00000KT 4SM HZ OVC016 22/16 A2989 RMK AO2 SLP122 T02170156 10217 20189 58001 $
KEMT 
11nm SE 
201745Z 00000KT 3SM HZ BKN013 19/16 A2991
KWHP 
12nm W 
201755Z 00000KT 8SM HZ SKC 19/14 A2995
KVNY 
15nm W 
201758Z 00000KT 3SM HZ CLR 19/14 A2991 RMK AO2 T01940144
KSMO 
18nm SW 
201751Z 14003KT 4SM HZ OVC014 19/16 A2991 RMK AO2 SLP126 T01940156 10194 20178 50001
KHHR 
19nm SW 
201753Z 00000KT 6SM HZ OVC017 21/16 A2991 RMK AO2 SLP126 T02060156 10206 20183 50001
KLAX 
19nm SW 
201753Z 00000KT 6SM HZ OVC016 21/15 A2990 RMK AO2 SLP125 T02060150 10206 20178 50001
TAF
KBUR 
10nm W 
201742Z 2018/2118 00000KT 4SM HZ SCT009 FM202100 19006KT P6SM SKC FM210500 VRB03KT P6SM SKC FM210900 VRB03KT 4SM BR BKN006 FM211600 14005KT 5SM BR OVC010
KVNY 
15nm W 
201740Z 2018/2118 29003KT 3SM HZ OVC007 FM202100 14006KT P6SM SKC FM210100 09006KT P6SM SKC FM210400 VRB03KT P6SM SKC FM211000 VRB03KT P6SM BKN006 FM211600 14005KT 5SM BR OVC010
KSMO 
18nm SW 
201740Z 2018/2118 13004KT 4SM HZ OVC012 FM201900 23005KT 6SM HZ SCT015 FM202200 23008KT P6SM SKC FM210200 22005KT P6SM BKN008 FM210500 VRB03KT P6SM OVC010 FM211200 00000KT P6SM OVC010
KLAX 
19nm SW 
201740Z 2018/2124 10005KT 5SM HZ OVC014 FM201900 26008KT P6SM OVC015 FM202100 26012KT P6SM SKC FM210300 26006KT P6SM OVC009 FM210900 VRB03KT P6SM OVC012 FM211600 26005KT P6SM OVC015 FM212000 26012KT P6SM SCT017
NOTAMs
Click for the latest NOTAMs
NOTAMs are issued by the DoD/FAA and will open in a separate window not controlled by AirNav.

 

 
 

Would you like to see your business listed on this page?

 If your business provides an interesting product or service to pilots, flight crews, aircraft, or users of the Mesa Heliport, you should consider listing it here.  To start the listing process, click on the button below
 
Add a business
 

Other Pages about Mesa Heliport

Update a link
 
Copyright © AirNav, LLC. All rights reserved. Privacy Policy  Contact